Latest Weather Observations for Hindmarsh Island

IDS60901

Issued at 12:01 pm CST Wednesday 8 July 2015 (issued every 10 minutes, with the page automatically refreshed every 10 minutes)

About weather observations | Map of Adelaide area stations | Latest observations for Adelaide area | Other Formats
Station Details ID: 023894 Name: HINDMARSH ISLAND AWS Lat: -35.52 Lon: 138.82 Height: 11.0 m
Data from the previous 72 hours. | See also: Recent months at Hindmarsh Island
Date/Time
CST
Tmp

°C
App
Tmp
°C
Dew
Point
°C
Rel
Hum
%
Delta-T

°C
Wind Press
QNH
hPa
Press
MSL
hPa
Rain
since
9 am
mm
Dir
 
Spd
km/h
Gust
km/h
Spd
kts
Gust
kts
08/12:00pm 15.1 13.4 9.7 70 2.8 NE 9 17 5 9 1023.6 1023.6 0.0
08/11:30am 14.4 12.7 9.8 74 2.4 N 9 13 5 7 1024.1 - 0.0
08/11:00am 13.2 11.4 9.5 78 1.9 N 9 13 5 7 1024.4 - 0.0
08/10:30am 12.4 10.5 9.2 81 1.6 N 9 13 5 7 1024.6 - 0.0
08/10:00am 11.3 8.5 8.5 83 1.4 N 13 15 7 8 1024.6 - 0.0
08/09:30am 10.9 8.5 8.7 86 1.1 N 11 13 6 7 1024.5 - 0.0
08/09:00am 10.4 8.0 8.5 88 0.9 NW 11 13 6 7 1024.4 1024.4 0.2
08/08:30am 9.8 6.8 7.9 88 0.9 NNW 13 17 7 9 1024.4 - 0.2
08/08:00am 9.0 5.6 7.5 90 0.7 N 15 17 8 9 1024.3 - 0.2
08/07:30am 8.5 5.0 7.1 91 0.7 N 15 17 8 9 1024.0 - 0.2
08/07:00am 8.0 4.3 6.5 90 0.7 N 15 17 8 9 1023.7 - 0.2
08/06:30am 8.1 6.2 6.6 90 0.7 N 6 9 3 5 1023.2 - 0.2
08/06:00am 8.7 6.7 7.2 90 0.7 NNE 7 9 4 5 1023.0 1023.0 0.2
08/05:30am 8.6 6.2 7.1 90 0.7 N 9 13 5 7 1022.8 - 0.2
08/05:00am 8.8 6.5 7.3 90 0.7 N 9 11 5 6 1022.8 - 0.2
08/04:30am 9.1 6.8 7.5 90 0.8 N 9 11 5 6 1022.7 - 0.2
08/04:00am 9.1 6.8 7.5 90 0.8 N 9 11 5 6 1022.9 - 0.2
08/03:30am 8.7 6.3 7.0 89 0.8 N 9 11 5 6 1022.7 - 0.2
08/03:00am 8.7 5.9 7.0 89 0.8 N 11 13 6 7 1022.8 1022.8 0.2
08/02:30am 9.2 6.5 7.5 89 0.8 N 11 13 6 7 1022.8 - 0.2
08/02:00am 9.6 7.7 7.7 88 0.9 N 7 9 4 5 1022.9 - 0.2
08/01:30am 10.0 8.2 7.9 87 1.0 NW 7 7 4 4 1022.7 - 0.2
08/01:00am 10.0 7.8 7.9 87 1.0 WNW 9 11 5 6 1022.8 - 0.2
08/12:30am 10.1 7.9 8.0 87 1.0 NW 9 11 5 6 1022.9 - 0.2
08/12:00am 9.8 7.6 7.9 88 0.9 NNW 9 11 5 6 1023.2 1023.2 0.2
 
Date/Time
CST
Tmp

°C
App
Tmp
°C
Dew
Point
°C
Rel
Hum
%
Delta-T

°C
Wind Press
QNH
hPa
Press
MSL
hPa
Rain
since
9 am
mm
Dir
 
Spd
km/h
Gust
km/h
Spd
kts
Gust
kts
07/11:30pm 9.4 6.7 7.5 88 0.9 NNW 11 13 6 7 1023.3 - 0.2
07/11:00pm 9.2 6.4 7.0 86 1.0 NNW 11 13 6 7 1023.3 - 0.2
07/10:30pm 10.0 7.4 7.9 87 1.0 NW 11 13 6 7 1023.2 - 0.2
07/10:00pm 9.9 7.7 7.8 87 1.0 NW 9 11 5 6 1023.2 - 0.2
07/09:30pm 10.0 7.8 7.8 86 1.1 NNW 9 11 5 6 1023.2 - 0.2
07/09:00pm 10.3 7.8 8.1 86 1.1 NW 11 11 6 6 1023.1 1023.1 0.2
07/08:30pm 10.7 8.3 8.6 87 1.0 NW 11 13 6 7 1023.0 - 0.2
07/08:00pm 10.9 8.9 8.7 86 1.1 NW 9 13 5 7 1022.9 - 0.2
07/07:30pm 11.0 9.0 8.8 86 1.1 NW 9 13 5 7 1022.7 - 0.2
07/07:00pm 11.3 9.4 9.0 86 1.1 NW 9 11 5 6 1022.5 - 0.2
07/06:30pm 11.5 9.6 9.2 86 1.2 NW 9 11 5 6 1022.3 - 0.2
07/06:00pm 12.0 10.6 9.4 84 1.3 NW 7 11 4 6 1022.0 1022.0 0.2
07/05:30pm 12.7 10.6 9.7 82 1.5 W 11 13 6 7 1021.7 - 0.2
07/05:00pm 13.2 11.5 10.0 81 1.6 W 9 13 5 7 1021.5 - 0.2
07/04:30pm 13.3 10.8 9.7 79 1.8 WSW 13 17 7 9 1021.3 - 0.2
07/04:00pm 13.8 11.5 10.4 80 1.8 WSW 13 17 7 9 1021.2 - 0.2
07/03:30pm 13.9 11.2 10.3 79 1.9 SW 15 20 8 11 1021.0 - 0.2
07/03:00pm 15.1 12.5 10.7 75 2.3 SW 15 19 8 10 1020.9 1020.9 0.2
07/02:30pm 14.1 11.3 9.9 76 2.2 SW 15 19 8 10 1020.8 - 0.2
07/02:00pm 14.9 12.2 10.3 74 2.4 WSW 15 19 8 10 1020.7 - 0.2
07/01:30pm 14.5 10.8 9.5 72 2.6 SW 19 24 10 13 1020.8 - 0.2
07/01:00pm 14.9 12.1 9.9 72 2.6 SW 15 19 8 10 1020.9 - 0.2
07/12:30pm 14.3 10.8 10.9 80 1.8 SW 20 24 11 13 1021.1 - 0.0
07/12:00pm 14.6 10.8 11.2 80 1.8 SW 22 28 12 15 1021.3 1021.4 0.0
07/11:30am 14.7 11.5 11.3 80 1.8 WSW 19 24 10 13 1021.5 - 0.0
07/11:00am 13.5 10.3 10.1 80 1.8 WSW 17 22 9 12 1021.7 - 0.0
07/10:30am 13.3 10.7 10.7 84 1.4 W 15 20 8 11 1021.8 - 0.0
07/10:00am 13.6 10.2 10.4 81 1.7 W 19 26 10 14 1021.6 - 0.0
07/09:30am 13.0 9.3 9.4 79 1.8 W 19 26 10 14 1021.3 - 0.0
07/09:00am 12.8 10.2 9.4 80 1.7 W 13 19 7 10 1021.1 1021.1 0.2
07/08:30am 12.0 9.4 9.4 84 1.3 W 13 20 7 11 1020.8 - 0.2
07/08:00am 11.7 9.1 9.3 85 1.2 W 13 17 7 9 1020.5 - 0.2
07/07:30am 11.6 8.6 9.2 85 1.2 W 15 20 8 11 1020.2 - 0.2
07/07:00am 11.1 7.6 8.7 85 1.2 W 17 20 9 11 1019.9 - 0.2
07/06:30am 11.3 8.2 8.7 84 1.3 WNW 15 20 8 11 1019.6 - 0.2
07/06:00am 11.4 8.3 8.8 84 1.3 WNW 15 20 8 11 1019.2 1019.2 0.2
07/05:30am 11.3 7.8 8.7 84 1.3 W 17 22 9 12 1019.0 - 0.2
07/05:00am 11.4 7.9 8.6 83 1.4 WNW 17 20 9 11 1018.7 - 0.2
07/04:30am 11.6 8.1 8.8 83 1.4 W 17 20 9 11 1018.6 - 0.2
07/04:00am 11.4 7.5 8.6 83 1.4 W 19 24 10 13 1018.5 - 0.2
07/03:30am 11.6 7.7 8.6 82 1.5 WNW 19 24 10 13 1018.4 - 0.2
07/03:00am 11.7 7.6 8.6 81 1.5 W 20 30 11 16 1018.5 1018.5 0.2
07/02:30am 11.8 7.7 8.6 81 1.6 WNW 20 32 11 17 1018.5 - 0.2
07/02:00am 11.7 7.2 8.6 81 1.5 WNW 22 30 12 16 1018.3 - 0.2
07/01:30am 11.7 7.6 8.6 81 1.5 WNW 20 30 11 16 1018.3 - 0.2
07/01:00am 11.7 7.8 8.6 81 1.5 WNW 19 26 10 14 1018.2 - 0.2
07/12:30am 11.7 7.6 8.6 81 1.5 W 20 24 11 13 1018.4 - 0.2
07/12:00am 11.7 8.2 8.6 81 1.5 W 17 22 9 12 1018.3 1018.3 0.2
 
Date/Time
CST
Tmp

°C
App
Tmp
°C
Dew
Point
°C
Rel
Hum
%
Delta-T

°C
Wind Press
QNH
hPa
Press
MSL
hPa
Rain
since
9 am
mm
Dir
 
Spd
km/h
Gust
km/h
Spd
kts
Gust
kts
06/11:30pm 11.9 8.0 8.6 80 1.6 WNW 19 26 10 14 1018.4 - 0.2
06/11:00pm 12.0 8.1 8.7 80 1.6 W 19 26 10 14 1018.4 - 0.2
06/10:30pm 12.4 8.6 8.9 79 1.8 W 19 24 10 13 1018.4 - 0.2
06/10:00pm 12.5 9.1 9.0 79 1.8 W 17 24 9 13 1018.3 - 0.2
06/09:30pm 12.5 8.4 8.8 78 1.8 W 20 26 11 14 1018.1 - 0.2
06/09:00pm 12.2 8.7 8.7 79 1.7 W 17 24 9 13 1017.9 1017.8 0.2
06/08:30pm 12.2 9.1 8.9 80 1.6 W 15 22 8 12 1017.6 - 0.2
06/08:00pm 12.5 8.5 8.4 76 2.0 WNW 19 26 10 14 1017.2 - 0.2
06/07:30pm 12.2 8.6 8.5 78 1.8 W 17 24 9 13 1017.2 - 0.2
06/07:00pm 11.7 8.5 8.4 80 1.6 WNW 15 19 8 10 1016.9 - 0.2
06/06:30pm 11.4 8.1 8.1 80 1.6 NW 15 17 8 9 1016.7 - 0.2
06/06:00pm 11.7 8.9 8.4 80 1.6 WNW 13 15 7 8 1016.6 1016.6 0.2
06/05:30pm 12.3 9.5 8.4 77 1.9 WNW 13 19 7 10 1016.2 - 0.2
06/05:00pm 13.0 8.9 8.5 74 2.2 W 20 30 11 16 1015.9 - 0.2
06/04:30pm 14.0 10.5 8.8 71 2.6 W 17 22 9 12 1015.7 - 0.2
06/04:00pm 13.6 10.7 9.6 77 2.0 W 15 19 8 10 1015.5 - 0.2
06/03:30pm 13.4 8.8 9.6 78 1.9 W 24 30 13 16 1015.3 - 0.2
06/03:00pm 14.4 8.6 8.1 66 3.1 W 28 44 15 24 1015.1 1015.1 0.0
06/02:30pm 14.8 9.5 8.3 65 3.3 W 26 37 14 20 1015.0 - 0.0
06/02:00pm 14.6 10.1 8.5 67 3.1 W 22 33 12 18 1015.0 - 0.0
06/01:30pm 15.2 9.7 7.7 61 3.7 W 26 41 14 22 1015.1 - 0.0
06/01:00pm 15.6 9.3 7.6 59 4.0 WNW 30 43 16 23 1015.2 - 0.0
06/12:30pm 14.6 9.2 8.1 65 3.2 W 26 37 14 20 1015.4 - 0.0
06/12:00pm 15.5 9.9 7.3 58 4.1 W 26 35 14 19 1015.5 1015.5 0.0
06/11:30am 15.3 11.1 8.1 62 3.6 W 20 32 11 17 1015.8 - 0.0
06/11:00am 15.0 10.2 8.7 66 3.2 W 24 35 13 19 1015.8 - 0.0
06/10:30am 14.5 10.0 8.5 67 3.0 W 22 30 12 16 1015.7 - 0.0
06/10:00am 13.8 9.6 8.4 70 2.7 W 20 30 11 16 1015.7 - 0.0
06/09:30am 13.2 10.5 8.9 75 2.2 W 13 20 7 11 1015.5 - 0.0
06/09:00am 12.2 9.9 9.0 81 1.6 W 11 13 6 7 1015.2 1015.2 5.4
06/08:30am 11.0 8.2 8.6 85 1.2 NW 13 15 7 8 1015.1 - 5.4
06/08:00am 10.5 6.9 8.3 86 1.1 NW 17 20 9 11 1014.6 - 5.4
06/07:30am 10.0 6.6 7.8 86 1.1 NNW 15 17 8 9 1014.4 - 5.4
06/07:00am 10.2 6.5 7.8 85 1.2 NNW 17 20 9 11 1014.2 - 5.4
06/06:30am 10.2 6.8 7.8 85 1.2 NNW 15 20 8 11 1014.3 - 5.4
06/06:00am 10.5 6.5 8.3 86 1.1 NNW 19 28 10 15 1014.1 1014.1 5.4
06/05:30am 10.2 6.9 8.1 87 1.0 N 15 20 8 11 1014.1 - 5.4
06/05:00am 10.6 6.1 8.5 87 1.0 N 22 30 12 16 1013.8 - 5.4
06/04:30am 10.4 6.2 8.3 87 1.0 N 20 28 11 15 1014.5 - 5.0
06/04:00am 10.1 6.0 8.0 87 1.0 N 19 28 10 15 1014.3 - 4.8
06/03:30am 10.4 6.4 8.3 87 1.0 N 19 28 10 15 1014.9 - 4.4
06/03:00am 10.7 7.9 8.5 86 1.1 N 13 20 7 11 1015.2 1015.2 3.8
06/02:30am 11.2 8.5 8.8 85 1.2 W 13 17 7 9 1015.8 - 3.6
06/02:00am 11.4 6.4 8.1 80 1.6 W 24 33 13 18 1016.0 - 1.2
06/01:30am 13.0 8.5 5.9 62 3.3 W 19 28 10 15 1015.3 - 0.0
06/01:00am 13.4 10.1 4.8 56 4.0 W 11 17 6 9 1015.3 - 0.0
06/12:30am 13.3 9.6 4.5 55 4.0 NNW 13 20 7 11 1014.8 - 0.0
06/12:00am 12.7 9.0 4.7 58 3.7 NNW 13 17 7 9 1015.3 1015.3 0.0
 
Date/Time
CST
Tmp

°C
App
Tmp
°C
Dew
Point
°C
Rel
Hum
%
Delta-T

°C
Wind Press
QNH
hPa
Press
MSL
hPa
Rain
since
9 am
mm
Dir
 
Spd
km/h
Gust
km/h
Spd
kts
Gust
kts
05/11:30pm 12.8 9.2 4.8 58 3.7 NNW 13 19 7 10 1015.6 - 0.0
05/11:00pm 13.3 8.9 4.5 55 4.0 N 17 22 9 12 1015.5 - 0.0
05/10:30pm 13.4 8.3 4.3 54 4.2 NNW 20 26 11 14 1015.7 - 0.0
05/10:00pm 13.4 8.6 4.6 55 4.0 NNW 19 26 10 14 1015.7 - 0.0
05/09:30pm 13.8 9.0 4.4 53 4.3 N 19 22 10 12 1016.0 - 0.0
05/09:00pm 14.3 8.4 4.0 50 4.7 NNW 24 35 13 19 1015.9 1015.9 0.0
05/08:30pm 14.7 8.8 4.1 49 4.9 NNW 24 39 13 21 1016.0 - 0.0
05/08:00pm 13.8 8.8 4.4 53 4.3 N 20 24 11 13 1015.9 - 0.0
05/07:30pm 14.0 9.2 4.6 53 4.3 N 19 26 10 14 1016.0 - 0.0
05/07:00pm 13.6 9.9 4.7 55 4.1 N 13 17 7 9 1016.2 - 0.0
05/06:30pm 13.1 9.6 5.3 59 3.6 NE 13 15 7 8 1016.3 - 0.0
05/06:00pm 14.2 11.0 5.0 54 4.3 N 11 17 6 9 1016.3 1016.3 0.0
05/05:30pm 14.5 11.3 5.0 53 4.4 NNW 11 17 6 9 1016.2 - 0.0
05/05:00pm 15.1 11.6 5.3 52 4.6 NNW 13 19 7 10 1016.5 - 0.0
05/04:30pm 16.2 12.8 5.8 50 5.0 NNW 13 17 7 9 1016.4 - 0.0
05/04:00pm 15.9 11.7 5.5 50 5.0 NNW 17 26 9 14 1016.5 - 0.0
05/03:30pm 16.1 13.5 6.3 52 4.8 NNW 9 15 5 8 1016.6 - 0.0
05/03:00pm 16.1 11.4 6.0 51 4.9 NW 20 28 11 15 1016.8 1016.8 0.0
05/02:30pm 16.2 10.2 5.2 48 5.2 NW 26 35 14 19 1016.8 - 0.0
05/02:00pm 16.2 8.0 4.9 47 5.3 NW 37 46 20 25 1016.6 - 0.0
05/01:30pm 16.6 9.2 4.9 46 5.6 NW 33 46 18 25 1016.6 - 0.0
05/01:00pm 16.8 10.1 5.4 47 5.5 NW 30 41 16 22 1017.1 - 0.0
05/12:30pm 16.4 9.3 5.7 49 5.2 NW 32 43 17 23 1017.6 - 0.0

Latest Capital City Observations: Canberra | Sydney | Melbourne | Brisbane | Adelaide | Perth | Hobart | Darwin

Other Formats:

Comma delimited format used in spreadsheet applications
http://www.bom.gov.au/fwo/IDS60901/IDS60901.94677.axf

JavaScript Object Notation format (JSON) in row-major order
http://www.bom.gov.au/fwo/IDS60901/IDS60901.94677.json